sensor_id;sensor_type;location;lat;lon;timestamp;P1;durP1;ratioP1;P2;durP2;ratioP2
1000;SDS011;489;47.806;12.858;2023-07-13T00:00:16;4.00;;;2.50;;
1000;SDS011;489;47.806;12.858;2023-07-13T00:02:17;2.57;;;2.37;;
1000;SDS011;489;47.806;12.858;2023-07-13T00:04:21;2.93;;;2.37;;
1000;SDS011;489;47.806;12.858;2023-07-13T00:06:25;3.50;;;2.30;;
1000;SDS011;489;47.806;12.858;2023-07-13T00:08:33;2.90;;;2.53;;
1000;SDS011;489;47.806;12.858;2023-07-13T00:10:38;4.27;;;2.70;;
1000;SDS011;489;47.806;12.858;2023-07-13T00:12:41;3.10;;;2.47;;
1000;SDS011;489;47.806;12.858;2023-07-13T00:14:45;3.37;;;2.50;;
1000;SDS011;489;47.806;12.858;2023-07-13T00:16:47;2.30;;;2.00;;
1000;SDS011;489;47.806;12.858;2023-07-13T00:18:49;2.80;;;2.10;;
1000;SDS011;489;47.806;12.858;2023-07-13T00:20:50;3.23;;;2.87;;
1000;SDS011;489;47.806;12.858;2023-07-13T00:22:52;2.20;;;2.00;;
1000;SDS011;489;47.806;12.858;2023-07-13T00:24:54;2.03;;;1.93;;
1000;SDS011;489;47.806;12.858;2023-07-13T00:26:57;1.90;;;1.80;;
1000;SDS011;489;47.806;12.858;2023-07-13T00:28:59;2.63;;;2.10;;
1000;SDS011;489;47.806;12.858;2023-07-13T00:31:04;3.40;;;1.80;;
1000;SDS011;489;47.806;12.858;2023-07-13T00:33:06;1.93;;;1.83;;
1000;SDS011;489;47.806;12.858;2023-07-13T00:35:08;2.23;;;2.13;;
1000;SDS011;489;47.806;12.858;2023-07-13T00:37:11;2.50;;;2.30;;
1000;SDS011;489;47.806;12.858;2023-07-13T00:39:13;2.40;;;2.20;;
1000;SDS011;489;47.806;12.858;2023-07-13T00:41:15;2.20;;;2.07;;
1000;SDS011;489;47.806;12.858;2023-07-13T00:43:18;1.90;;;1.80;;
1000;SDS011;489;47.806;12.858;2023-07-13T00:48:02;1.70;;;1.60;;
1000;SDS011;489;47.806;12.858;2023-07-13T00:50:04;2.30;;;2.03;;
1000;SDS011;489;47.806;12.858;2023-07-13T00:52:09;2.80;;;2.17;;
1000;SDS011;489;47.806;12.858;2023-07-13T00:54:13;2.00;;;1.80;;
1000;SDS011;489;47.806;12.858;2023-07-13T00:56:16;1.70;;;1.60;;
1000;SDS011;489;47.806;12.858;2023-07-13T00:58:18;1.90;;;1.80;;
1000;SDS011;489;47.806;12.858;2023-07-13T01:00:21;1.97;;;1.73;;
1000;SDS011;489;47.806;12.858;2023-07-13T01:02:24;1.70;;;1.60;;
1000;SDS011;489;47.806;12.858;2023-07-13T01:04:27;3.13;;;2.40;;
1000;SDS011;489;47.806;12.858;2023-07-13T01:06:29;2.07;;;1.70;;
1000;SDS011;489;47.806;12.858;2023-07-13T01:08:33;2.30;;;2.10;;
1000;SDS011;489;47.806;12.858;2023-07-13T01:10:35;1.80;;;1.70;;
1000;SDS011;489;47.806;12.858;2023-07-13T01:12:40;1.80;;;1.70;;
1000;SDS011;489;47.806;12.858;2023-07-13T01:14:41;2.37;;;1.90;;
1000;SDS011;489;47.806;12.858;2023-07-13T01:16:44;1.50;;;1.40;;
1000;SDS011;489;47.806;12.858;2023-07-13T01:18:49;2.03;;;1.60;;
1000;SDS011;489;47.806;12.858;2023-07-13T01:20:55;1.73;;;1.53;;
1000;SDS011;489;47.806;12.858;2023-07-13T01:22:57;1.90;;;1.80;;
1000;SDS011;489;47.806;12.858;2023-07-13T01:25:00;2.00;;;1.80;;
1000;SDS011;489;47.806;12.858;2023-07-13T01:27:02;1.70;;;1.60;;
1000;SDS011;489;47.806;12.858;2023-07-13T01:29:05;1.83;;;1.60;;
1000;SDS011;489;47.806;12.858;2023-07-13T01:31:08;1.90;;;1.70;;
1000;SDS011;489;47.806;12.858;2023-07-13T01:33:11;2.23;;;2.03;;
1000;SDS011;489;47.806;12.858;2023-07-13T01:35:13;1.50;;;1.40;;
1000;SDS011;489;47.806;12.858;2023-07-13T01:37:19;2.00;;;1.50;;
1000;SDS011;489;47.806;12.858;2023-07-13T01:39:22;1.57;;;1.47;;
1000;SDS011;489;47.806;12.858;2023-07-13T01:41:24;2.30;;;1.43;;
1000;SDS011;489;47.806;12.858;2023-07-13T01:43:27;1.43;;;1.33;;
1000;SDS011;489;47.806;12.858;2023-07-13T01:45:29;1.60;;;1.50;;
1000;SDS011;489;47.806;12.858;2023-07-13T01:47:30;1.20;;;1.20;;
1000;SDS011;489;47.806;12.858;2023-07-13T01:49:32;2.10;;;1.30;;
1000;SDS011;489;47.806;12.858;2023-07-13T01:51:36;3.07;;;1.60;;
1000;SDS011;489;47.806;12.858;2023-07-13T01:53:39;1.60;;;1.50;;
1000;SDS011;489;47.806;12.858;2023-07-13T01:55:41;1.40;;;1.30;;
1000;SDS011;489;47.806;12.858;2023-07-13T01:57:43;1.23;;;1.13;;
1000;SDS011;489;47.806;12.858;2023-07-13T01:59:47;1.20;;;1.10;;
1000;SDS011;489;47.806;12.858;2023-07-13T02:01:49;1.27;;;1.17;;
1000;SDS011;489;47.806;12.858;2023-07-13T02:03:51;1.40;;;1.30;;
1000;SDS011;489;47.806;12.858;2023-07-13T02:05:54;2.03;;;1.47;;
1000;SDS011;489;47.806;12.858;2023-07-13T02:07:57;2.67;;;1.80;;
1000;SDS011;489;47.806;12.858;2023-07-13T02:10:00;1.43;;;1.33;;
1000;SDS011;489;47.806;12.858;2023-07-13T02:12:02;1.50;;;1.20;;
1000;SDS011;489;47.806;12.858;2023-07-13T02:14:07;1.30;;;1.20;;
1000;SDS011;489;47.806;12.858;2023-07-13T02:16:27;1.37;;;1.07;;
1000;SDS011;489;47.806;12.858;2023-07-13T02:18:29;1.27;;;1.17;;
1000;SDS011;489;47.806;12.858;2023-07-13T02:20:31;1.30;;;1.20;;
1000;SDS011;489;47.806;12.858;2023-07-13T02:22:34;1.67;;;1.40;;
1000;SDS011;489;47.806;12.858;2023-07-13T02:24:36;1.10;;;1.00;;
1000;SDS011;489;47.806;12.858;2023-07-13T02:26:40;0.97;;;0.87;;
1000;SDS011;489;47.806;12.858;2023-07-13T02:28:42;1.13;;;1.10;;
1000;SDS011;489;47.806;12.858;2023-07-13T02:30:46;1.50;;;1.40;;
1000;SDS011;489;47.806;12.858;2023-07-13T02:32:49;1.03;;;1.00;;
1000;SDS011;489;47.806;12.858;2023-07-13T02:34:51;2.10;;;1.30;;
1000;SDS011;489;47.806;12.858;2023-07-13T02:36:54;1.07;;;1.07;;
1000;SDS011;489;47.806;12.858;2023-07-13T02:38:56;1.60;;;1.37;;
1000;SDS011;489;47.806;12.858;2023-07-13T02:40:59;1.47;;;1.37;;
1000;SDS011;489;47.806;12.858;2023-07-13T02:43:03;1.20;;;1.10;;
1000;SDS011;489;47.806;12.858;2023-07-13T02:45:06;2.40;;;1.60;;
1000;SDS011;489;47.806;12.858;2023-07-13T02:47:09;2.07;;;1.50;;
1000;SDS011;489;47.806;12.858;2023-07-13T02:49:11;1.60;;;1.50;;
1000;SDS011;489;47.806;12.858;2023-07-13T02:51:13;2.00;;;1.80;;
1000;SDS011;489;47.806;12.858;2023-07-13T02:53:15;1.23;;;1.13;;
1000;SDS011;489;47.806;12.858;2023-07-13T02:55:17;1.70;;;1.60;;
1000;SDS011;489;47.806;12.858;2023-07-13T02:57:19;1.57;;;1.47;;
1000;SDS011;489;47.806;12.858;2023-07-13T02:59:22;3.57;;;2.07;;
1000;SDS011;489;47.806;12.858;2023-07-13T03:01:24;1.77;;;1.67;;
1000;SDS011;489;47.806;12.858;2023-07-13T03:03:27;1.67;;;1.50;;
1000;SDS011;489;47.806;12.858;2023-07-13T03:05:29;1.67;;;1.50;;
1000;SDS011;489;47.806;12.858;2023-07-13T03:07:31;2.27;;;2.07;;
1000;SDS011;489;47.806;12.858;2023-07-13T03:09:53;1.80;;;1.70;;
1000;SDS011;489;47.806;12.858;2023-07-13T03:11:58;1.60;;;1.50;;
1000;SDS011;489;47.806;12.858;2023-07-13T03:14:03;1.57;;;1.47;;
1000;SDS011;489;47.806;12.858;2023-07-13T03:16:10;2.00;;;1.80;;
1000;SDS011;489;47.806;12.858;2023-07-13T03:18:12;1.90;;;1.80;;
1000;SDS011;489;47.806;12.858;2023-07-13T03:20:14;2.00;;;1.87;;
1000;SDS011;489;47.806;12.858;2023-07-13T03:22:17;2.23;;;2.07;;
1000;SDS011;489;47.806;12.858;2023-07-13T03:24:19;2.20;;;2.00;;
1000;SDS011;489;47.806;12.858;2023-07-13T03:26:26;1.73;;;1.63;;
1000;SDS011;489;47.806;12.858;2023-07-13T03:28:28;1.90;;;1.80;;
1000;SDS011;489;47.806;12.858;2023-07-13T03:30:29;2.50;;;1.70;;
1000;SDS011;489;47.806;12.858;2023-07-13T03:32:33;1.80;;;1.70;;
1000;SDS011;489;47.806;12.858;2023-07-13T03:34:35;1.90;;;1.80;;
1000;SDS011;489;47.806;12.858;2023-07-13T03:36:37;1.80;;;1.70;;
1000;SDS011;489;47.806;12.858;2023-07-13T03:38:43;2.30;;;1.60;;
1000;SDS011;489;47.806;12.858;2023-07-13T03:40:44;1.80;;;1.70;;
1000;SDS011;489;47.806;12.858;2023-07-13T03:42:46;1.80;;;1.70;;
1000;SDS011;489;47.806;12.858;2023-07-13T03:44:51;1.70;;;1.60;;
1000;SDS011;489;47.806;12.858;2023-07-13T03:46:53;2.60;;;1.80;;
1000;SDS011;489;47.806;12.858;2023-07-13T03:48:56;1.93;;;1.73;;
1000;SDS011;489;47.806;12.858;2023-07-13T03:50:58;3.23;;;1.77;;
1000;SDS011;489;47.806;12.858;2023-07-13T03:53:00;2.30;;;2.13;;
1000;SDS011;489;47.806;12.858;2023-07-13T03:55:02;3.70;;;3.23;;
1000;SDS011;489;47.806;12.858;2023-07-13T03:57:06;2.70;;;2.50;;
1000;SDS011;489;47.806;12.858;2023-07-13T03:59:09;3.13;;;2.30;;
1000;SDS011;489;47.806;12.858;2023-07-13T04:01:12;1.97;;;1.83;;
1000;SDS011;489;47.806;12.858;2023-07-13T04:03:13;1.83;;;1.73;;
1000;SDS011;489;47.806;12.858;2023-07-13T04:05:18;1.83;;;1.73;;
1000;SDS011;489;47.806;12.858;2023-07-13T04:07:21;4.30;;;2.17;;
1000;SDS011;489;47.806;12.858;2023-07-13T04:09:22;2.57;;;1.87;;
1000;SDS011;489;47.806;12.858;2023-07-13T04:11:26;2.37;;;1.90;;
1000;SDS011;489;47.806;12.858;2023-07-13T04:13:28;1.90;;;1.80;;
1000;SDS011;489;47.806;12.858;2023-07-13T04:15:31;2.33;;;2.23;;
1000;SDS011;489;47.806;12.858;2023-07-13T04:17:33;2.73;;;2.30;;
1000;SDS011;489;47.806;12.858;2023-07-13T04:19:35;2.33;;;2.13;;
1000;SDS011;489;47.806;12.858;2023-07-13T04:21:38;2.47;;;2.27;;
1000;SDS011;489;47.806;12.858;2023-07-13T04:23:39;3.17;;;2.53;;
1000;SDS011;489;47.806;12.858;2023-07-13T04:25:43;2.17;;;1.97;;
1000;SDS011;489;47.806;12.858;2023-07-13T04:27:45;2.27;;;2.17;;
1000;SDS011;489;47.806;12.858;2023-07-13T04:29:47;2.13;;;1.97;;
1000;SDS011;489;47.806;12.858;2023-07-13T04:31:49;2.43;;;1.90;;
1000;SDS011;489;47.806;12.858;2023-07-13T04:33:51;1.80;;;1.67;;
1000;SDS011;489;47.806;12.858;2023-07-13T04:35:54;2.97;;;1.87;;
1000;SDS011;489;47.806;12.858;2023-07-13T04:37:58;1.90;;;1.80;;
1000;SDS011;489;47.806;12.858;2023-07-13T04:40:00;2.00;;;1.80;;
1000;SDS011;489;47.806;12.858;2023-07-13T04:42:03;2.20;;;1.83;;
1000;SDS011;489;47.806;12.858;2023-07-13T04:44:05;2.00;;;1.90;;
1000;SDS011;489;47.806;12.858;2023-07-13T04:46:08;1.90;;;1.60;;
1000;SDS011;489;47.806;12.858;2023-07-13T04:48:12;2.20;;;2.00;;
1000;SDS011;489;47.806;12.858;2023-07-13T04:50:14;2.63;;;2.00;;
1000;SDS011;489;47.806;12.858;2023-07-13T04:52:21;1.80;;;1.40;;
1000;SDS011;489;47.806;12.858;2023-07-13T04:54:24;2.40;;;2.20;;
1000;SDS011;489;47.806;12.858;2023-07-13T04:56:26;3.13;;;2.03;;
1000;SDS011;489;47.806;12.858;2023-07-13T04:58:28;1.70;;;1.57;;
1000;SDS011;489;47.806;12.858;2023-07-13T05:00:30;2.07;;;1.97;;
1000;SDS011;489;47.806;12.858;2023-07-13T05:02:32;2.57;;;2.17;;
1000;SDS011;489;47.806;12.858;2023-07-13T05:04:35;3.10;;;1.63;;
1000;SDS011;489;47.806;12.858;2023-07-13T05:06:37;2.20;;;2.00;;
1000;SDS011;489;47.806;12.858;2023-07-13T05:08:39;2.27;;;2.07;;
1000;SDS011;489;47.806;12.858;2023-07-13T05:10:42;2.00;;;1.90;;
1000;SDS011;489;47.806;12.858;2023-07-13T05:12:44;1.70;;;1.50;;
1000;SDS011;489;47.806;12.858;2023-07-13T05:14:46;1.80;;;1.70;;
1000;SDS011;489;47.806;12.858;2023-07-13T05:16:49;2.10;;;1.90;;
1000;SDS011;489;47.806;12.858;2023-07-13T05:18:51;1.63;;;1.53;;
1000;SDS011;489;47.806;12.858;2023-07-13T05:20:59;1.30;;;1.20;;
1000;SDS011;489;47.806;12.858;2023-07-13T05:23:03;1.47;;;1.37;;
1000;SDS011;489;47.806;12.858;2023-07-13T05:25:05;1.33;;;1.30;;
1000;SDS011;489;47.806;12.858;2023-07-13T05:27:09;1.40;;;1.30;;
1000;SDS011;489;47.806;12.858;2023-07-13T05:29:11;1.70;;;1.60;;
1000;SDS011;489;47.806;12.858;2023-07-13T05:31:13;1.47;;;1.27;;
1000;SDS011;489;47.806;12.858;2023-07-13T05:33:15;1.40;;;1.30;;
1000;SDS011;489;47.806;12.858;2023-07-13T05:35:17;1.47;;;1.23;;
1000;SDS011;489;47.806;12.858;2023-07-13T05:37:19;2.13;;;1.93;;
1000;SDS011;489;47.806;12.858;2023-07-13T05:39:21;2.57;;;1.47;;
1000;SDS011;489;47.806;12.858;2023-07-13T05:41:23;1.80;;;1.70;;
1000;SDS011;489;47.806;12.858;2023-07-13T05:43:27;2.53;;;1.60;;
1000;SDS011;489;47.806;12.858;2023-07-13T05:45:29;1.37;;;1.27;;
1000;SDS011;489;47.806;12.858;2023-07-13T05:47:31;1.20;;;1.10;;
1000;SDS011;489;47.806;12.858;2023-07-13T05:49:33;1.80;;;1.70;;
1000;SDS011;489;47.806;12.858;2023-07-13T05:51:34;1.33;;;1.23;;
1000;SDS011;489;47.806;12.858;2023-07-13T05:53:36;1.87;;;1.67;;
1000;SDS011;489;47.806;12.858;2023-07-13T05:55:40;1.30;;;1.20;;
1000;SDS011;489;47.806;12.858;2023-07-13T05:57:42;1.27;;;1.10;;
1000;SDS011;489;47.806;12.858;2023-07-13T05:59:46;1.77;;;1.50;;
1000;SDS011;489;47.806;12.858;2023-07-13T06:01:48;1.50;;;1.40;;
1000;SDS011;489;47.806;12.858;2023-07-13T06:03:52;1.60;;;1.50;;
1000;SDS011;489;47.806;12.858;2023-07-13T06:05:54;1.60;;;1.50;;
1000;SDS011;489;47.806;12.858;2023-07-13T06:07:56;1.60;;;1.40;;
1000;SDS011;489;47.806;12.858;2023-07-13T06:09:58;1.17;;;1.07;;
1000;SDS011;489;47.806;12.858;2023-07-13T06:12:00;1.60;;;1.50;;
1000;SDS011;489;47.806;12.858;2023-07-13T06:14:02;1.50;;;1.40;;
1000;SDS011;489;47.806;12.858;2023-07-13T06:16:06;1.50;;;1.37;;
1000;SDS011;489;47.806;12.858;2023-07-13T06:18:09;1.70;;;1.60;;
1000;SDS011;489;47.806;12.858;2023-07-13T06:20:10;2.60;;;1.83;;
1000;SDS011;489;47.806;12.858;2023-07-13T06:22:12;1.50;;;1.40;;
1000;SDS011;489;47.806;12.858;2023-07-13T06:24:13;2.03;;;1.70;;
1000;SDS011;489;47.806;12.858;2023-07-13T06:26:18;3.03;;;1.30;;
1000;SDS011;489;47.806;12.858;2023-07-13T06:28:20;1.57;;;1.47;;
1000;SDS011;489;47.806;12.858;2023-07-13T06:30:22;2.03;;;1.60;;
1000;SDS011;489;47.806;12.858;2023-07-13T06:32:25;2.00;;;1.60;;
1000;SDS011;489;47.806;12.858;2023-07-13T06:34:27;4.13;;;1.80;;
1000;SDS011;489;47.806;12.858;2023-07-13T06:36:29;2.30;;;1.80;;
1000;SDS011;489;47.806;12.858;2023-07-13T06:38:31;2.17;;;1.97;;
1000;SDS011;489;47.806;12.858;2023-07-13T06:40:34;2.20;;;2.00;;
1000;SDS011;489;47.806;12.858;2023-07-13T06:42:36;1.90;;;1.80;;
1000;SDS011;489;47.806;12.858;2023-07-13T06:44:38;2.20;;;2.00;;
1000;SDS011;489;47.806;12.858;2023-07-13T06:46:40;2.13;;;2.00;;
1000;SDS011;489;47.806;12.858;2023-07-13T06:48:44;2.70;;;1.70;;
1000;SDS011;489;47.806;12.858;2023-07-13T06:50:46;2.00;;;1.90;;
1000;SDS011;489;47.806;12.858;2023-07-13T06:52:49;1.80;;;1.70;;
1000;SDS011;489;47.806;12.858;2023-07-13T06:54:50;2.70;;;1.80;;
1000;SDS011;489;47.806;12.858;2023-07-13T06:56:52;4.37;;;2.00;;
1000;SDS011;489;47.806;12.858;2023-07-13T06:58:54;1.37;;;1.27;;
1000;SDS011;489;47.806;12.858;2023-07-13T07:00:56;1.80;;;1.70;;
1000;SDS011;489;47.806;12.858;2023-07-13T07:02:58;1.70;;;1.43;;
1000;SDS011;489;47.806;12.858;2023-07-13T07:05:02;1.90;;;1.80;;
1000;SDS011;489;47.806;12.858;2023-07-13T07:07:04;1.87;;;1.70;;
1000;SDS011;489;47.806;12.858;2023-07-13T07:09:06;2.10;;;1.90;;
1000;SDS011;489;47.806;12.858;2023-07-13T07:11:11;1.80;;;1.70;;
1000;SDS011;489;47.806;12.858;2023-07-13T07:13:14;1.70;;;1.60;;
1000;SDS011;489;47.806;12.858;2023-07-13T07:15:16;1.77;;;1.67;;
1000;SDS011;489;47.806;12.858;2023-07-13T07:17:18;2.07;;;1.87;;
1000;SDS011;489;47.806;12.858;2023-07-13T07:19:20;2.23;;;1.67;;
1000;SDS011;489;47.806;12.858;2023-07-13T07:21:24;3.53;;;1.83;;
1000;SDS011;489;47.806;12.858;2023-07-13T07:23:26;3.70;;;3.03;;
1000;SDS011;489;47.806;12.858;2023-07-13T07:25:28;3.50;;;3.10;;
1000;SDS011;489;47.806;12.858;2023-07-13T07:27:32;2.60;;;2.40;;
1000;SDS011;489;47.806;12.858;2023-07-13T07:29:34;2.50;;;1.87;;
1000;SDS011;489;47.806;12.858;2023-07-13T07:31:36;2.20;;;2.00;;
1000;SDS011;489;47.806;12.858;2023-07-13T07:33:38;2.30;;;2.10;;
1000;SDS011;489;47.806;12.858;2023-07-13T07:35:40;1.93;;;1.73;;
1000;SDS011;489;47.806;12.858;2023-07-13T07:37:45;2.60;;;2.10;;
1000;SDS011;489;47.806;12.858;2023-07-13T07:39:48;2.27;;;2.07;;
1000;SDS011;489;47.806;12.858;2023-07-13T07:41:50;2.20;;;1.83;;
1000;SDS011;489;47.806;12.858;2023-07-13T07:43:52;1.70;;;1.60;;
1000;SDS011;489;47.806;12.858;2023-07-13T07:45:54;1.97;;;1.87;;
1000;SDS011;489;47.806;12.858;2023-07-13T07:47:56;1.43;;;1.33;;
1000;SDS011;489;47.806;12.858;2023-07-13T07:49:59;2.13;;;1.73;;
1000;SDS011;489;47.806;12.858;2023-07-13T07:52:01;1.80;;;1.70;;
1000;SDS011;489;47.806;12.858;2023-07-13T07:54:05;1.90;;;1.80;;
1000;SDS011;489;47.806;12.858;2023-07-13T07:56:07;2.10;;;1.90;;
1000;SDS011;489;47.806;12.858;2023-07-13T07:58:10;2.40;;;2.20;;
1000;SDS011;489;47.806;12.858;2023-07-13T08:00:13;2.00;;;1.80;;
1000;SDS011;489;47.806;12.858;2023-07-13T08:02:15;3.33;;;3.03;;
1000;SDS011;489;47.806;12.858;2023-07-13T08:04:39;2.73;;;2.40;;
1000;SDS011;489;47.806;12.858;2023-07-13T08:06:41;2.30;;;2.10;;
1000;SDS011;489;47.806;12.858;2023-07-13T08:08:43;2.17;;;1.97;;
1000;SDS011;489;47.806;12.858;2023-07-13T08:10:46;2.27;;;2.07;;
1000;SDS011;489;47.806;12.858;2023-07-13T08:12:48;2.17;;;1.97;;
1000;SDS011;489;47.806;12.858;2023-07-13T08:14:50;2.60;;;1.97;;
1000;SDS011;489;47.806;12.858;2023-07-13T08:16:54;2.00;;;1.90;;
1000;SDS011;489;47.806;12.858;2023-07-13T08:18:56;2.00;;;1.77;;
1000;SDS011;489;47.806;12.858;2023-07-13T08:20:59;2.33;;;2.13;;
1000;SDS011;489;47.806;12.858;2023-07-13T08:23:05;2.20;;;2.00;;
1000;SDS011;489;47.806;12.858;2023-07-13T08:25:07;3.17;;;2.40;;
1000;SDS011;489;47.806;12.858;2023-07-13T08:27:11;2.43;;;2.23;;
1000;SDS011;489;47.806;12.858;2023-07-13T08:29:13;2.37;;;2.17;;
1000;SDS011;489;47.806;12.858;2023-07-13T08:31:15;3.00;;;1.77;;
1000;SDS011;489;47.806;12.858;2023-07-13T08:33:17;1.97;;;1.77;;
1000;SDS011;489;47.806;12.858;2023-07-13T08:35:19;1.83;;;1.63;;
1000;SDS011;489;47.806;12.858;2023-07-13T08:37:21;1.73;;;1.63;;
1000;SDS011;489;47.806;12.858;2023-07-13T08:39:24;1.40;;;1.30;;
1000;SDS011;489;47.806;12.858;2023-07-13T08:41:28;1.67;;;1.57;;
1000;SDS011;489;47.806;12.858;2023-07-13T08:43:33;1.90;;;1.80;;
1000;SDS011;489;47.806;12.858;2023-07-13T08:45:38;2.47;;;2.27;;
1000;SDS011;489;47.806;12.858;2023-07-13T08:47:44;2.10;;;1.80;;
1000;SDS011;489;47.806;12.858;2023-07-13T08:49:49;2.07;;;1.80;;
1000;SDS011;489;47.806;12.858;2023-07-13T08:51:51;2.33;;;1.80;;
1000;SDS011;489;47.806;12.858;2023-07-13T08:53:57;4.40;;;1.90;;
1000;SDS011;489;47.806;12.858;2023-07-13T08:56:01;2.00;;;1.80;;
1000;SDS011;489;47.806;12.858;2023-07-13T08:58:05;1.80;;;1.50;;
1000;SDS011;489;47.806;12.858;2023-07-13T09:00:13;1.73;;;1.53;;
1000;SDS011;489;47.806;12.858;2023-07-13T09:02:18;3.47;;;1.80;;
1000;SDS011;489;47.806;12.858;2023-07-13T09:04:25;2.63;;;2.00;;
1000;SDS011;489;47.806;12.858;2023-07-13T09:06:31;1.50;;;1.40;;
1000;SDS011;489;47.806;12.858;2023-07-13T09:08:47;1.90;;;1.57;;
1000;SDS011;489;47.806;12.858;2023-07-13T09:10:53;1.70;;;1.60;;
1000;SDS011;489;47.806;12.858;2023-07-13T09:13:12;2.00;;;1.30;;
1000;SDS011;489;47.806;12.858;2023-07-13T09:15:27;2.43;;;1.87;;
1000;SDS011;489;47.806;12.858;2023-07-13T09:17:33;1.57;;;1.47;;
1000;SDS011;489;47.806;12.858;2023-07-13T09:19:37;1.90;;;1.80;;
1000;SDS011;489;47.806;12.858;2023-07-13T09:21:41;2.40;;;2.00;;
1000;SDS011;489;47.806;12.858;2023-07-13T09:23:43;1.80;;;1.70;;
1000;SDS011;489;47.806;12.858;2023-07-13T09:25:47;2.07;;;1.67;;
1000;SDS011;489;47.806;12.858;2023-07-13T09:27:51;1.60;;;1.50;;
1000;SDS011;489;47.806;12.858;2023-07-13T09:29:58;1.70;;;1.60;;
1000;SDS011;489;47.806;12.858;2023-07-13T09:32:09;1.60;;;1.50;;
1000;SDS011;489;47.806;12.858;2023-07-13T09:34:13;2.20;;;1.90;;
1000;SDS011;489;47.806;12.858;2023-07-13T09:36:17;1.60;;;1.40;;
1000;SDS011;489;47.806;12.858;2023-07-13T09:38:21;1.83;;;1.40;;
1000;SDS011;489;47.806;12.858;2023-07-13T09:40:28;2.20;;;1.80;;
1000;SDS011;489;47.806;12.858;2023-07-13T09:42:34;1.97;;;1.87;;
1000;SDS011;489;47.806;12.858;2023-07-13T09:44:37;1.90;;;1.70;;
1000;SDS011;489;47.806;12.858;2023-07-13T09:46:43;1.97;;;1.87;;
1000;SDS011;489;47.806;12.858;2023-07-13T09:48:47;1.60;;;1.50;;
1000;SDS011;489;47.806;12.858;2023-07-13T09:50:51;2.60;;;1.90;;
1000;SDS011;489;47.806;12.858;2023-07-13T09:52:56;3.10;;;1.90;;
1000;SDS011;489;47.806;12.858;2023-07-13T09:54:59;2.90;;;2.00;;
1000;SDS011;489;47.806;12.858;2023-07-13T09:57:01;1.90;;;1.80;;
1000;SDS011;489;47.806;12.858;2023-07-13T09:59:04;2.10;;;2.00;;
1000;SDS011;489;47.806;12.858;2023-07-13T10:01:06;2.20;;;2.10;;
1000;SDS011;489;47.806;12.858;2023-07-13T10:03:16;2.70;;;2.50;;
1000;SDS011;489;47.806;12.858;2023-07-13T10:05:20;4.00;;;2.10;;
1000;SDS011;489;47.806;12.858;2023-07-13T10:07:22;1.80;;;1.70;;
1000;SDS011;489;47.806;12.858;2023-07-13T10:09:24;2.30;;;2.10;;
1000;SDS011;489;47.806;12.858;2023-07-13T10:11:27;2.10;;;2.00;;
1000;SDS011;489;47.806;12.858;2023-07-13T10:13:32;2.40;;;1.90;;
1000;SDS011;489;47.806;12.858;2023-07-13T10:15:37;1.83;;;1.63;;
1000;SDS011;489;47.806;12.858;2023-07-13T10:17:39;2.50;;;2.30;;
1000;SDS011;489;47.806;12.858;2023-07-13T10:19:42;1.80;;;1.70;;
1000;SDS011;489;47.806;12.858;2023-07-13T10:21:50;3.30;;;1.90;;
1000;SDS011;489;47.806;12.858;2023-07-13T10:23:53;2.20;;;2.00;;
1000;SDS011;489;47.806;12.858;2023-07-13T10:25:58;3.37;;;2.83;;
1000;SDS011;489;47.806;12.858;2023-07-13T10:28:03;2.17;;;1.97;;
1000;SDS011;489;47.806;12.858;2023-07-13T10:30:11;2.33;;;1.63;;
1000;SDS011;489;47.806;12.858;2023-07-13T10:32:15;2.40;;;2.20;;
1000;SDS011;489;47.806;12.858;2023-07-13T10:34:26;2.00;;;1.90;;
1000;SDS011;489;47.806;12.858;2023-07-13T10:36:30;4.17;;;2.10;;
1000;SDS011;489;47.806;12.858;2023-07-13T10:38:36;2.07;;;1.80;;
1000;SDS011;489;47.806;12.858;2023-07-13T10:40:39;2.20;;;2.10;;
1000;SDS011;489;47.806;12.858;2023-07-13T10:42:43;2.80;;;2.30;;
1000;SDS011;489;47.806;12.858;2023-07-13T10:44:47;2.03;;;1.87;;
1000;SDS011;489;47.806;12.858;2023-07-13T10:46:49;2.60;;;2.33;;
1000;SDS011;489;47.806;12.858;2023-07-13T10:48:51;2.50;;;2.10;;
1000;SDS011;489;47.806;12.858;2023-07-13T10:50:55;2.07;;;1.87;;
1000;SDS011;489;47.806;12.858;2023-07-13T10:53:01;2.90;;;2.20;;
1000;SDS011;489;47.806;12.858;2023-07-13T10:55:11;3.17;;;2.10;;
1000;SDS011;489;47.806;12.858;2023-07-13T10:57:32;2.37;;;2.17;;
1000;SDS011;489;47.806;12.858;2023-07-13T10:59:43;2.20;;;2.10;;
1000;SDS011;489;47.806;12.858;2023-07-13T11:01:53;2.50;;;2.40;;
1000;SDS011;489;47.806;12.858;2023-07-13T11:03:59;2.53;;;2.33;;
1000;SDS011;489;47.806;12.858;2023-07-13T11:06:04;3.00;;;2.43;;
1000;SDS011;489;47.806;12.858;2023-07-13T11:08:13;1.70;;;1.60;;
1000;SDS011;489;47.806;12.858;2023-07-13T11:12:52;2.10;;;1.87;;
1000;SDS011;489;47.806;12.858;2023-07-13T11:15:01;2.93;;;2.50;;
1000;SDS011;489;47.806;12.858;2023-07-13T11:19:48;2.53;;;2.33;;
1000;SDS011;489;47.806;12.858;2023-07-13T11:22:03;2.73;;;2.10;;
1000;SDS011;489;47.806;12.858;2023-07-13T11:24:14;2.73;;;2.53;;
1000;SDS011;489;47.806;12.858;2023-07-13T11:28:44;2.40;;;2.20;;
1000;SDS011;489;47.806;12.858;2023-07-13T11:30:59;2.70;;;2.50;;
1000;SDS011;489;47.806;12.858;2023-07-13T11:33:03;2.57;;;2.37;;
1000;SDS011;489;47.806;12.858;2023-07-13T11:35:08;3.17;;;2.10;;
1000;SDS011;489;47.806;12.858;2023-07-13T11:37:14;2.50;;;2.30;;
1000;SDS011;489;47.806;12.858;2023-07-13T11:39:19;2.53;;;2.33;;
1000;SDS011;489;47.806;12.858;2023-07-13T11:41:25;2.83;;;2.13;;
1000;SDS011;489;47.806;12.858;2023-07-13T11:43:31;4.90;;;2.83;;
1000;SDS011;489;47.806;12.858;2023-07-13T11:45:34;2.63;;;2.50;;
1000;SDS011;489;47.806;12.858;2023-07-13T11:47:39;2.53;;;2.20;;
1000;SDS011;489;47.806;12.858;2023-07-13T11:49:42;2.50;;;2.30;;
1000;SDS011;489;47.806;12.858;2023-07-13T11:51:47;3.10;;;2.90;;
1000;SDS011;489;47.806;12.858;2023-07-13T11:53:54;3.10;;;2.80;;
1000;SDS011;489;47.806;12.858;2023-07-13T11:55:56;3.20;;;2.90;;
1000;SDS011;489;47.806;12.858;2023-07-13T12:00:13;3.30;;;3.10;;
1000;SDS011;489;47.806;12.858;2023-07-13T12:02:22;4.07;;;3.70;;
1000;SDS011;489;47.806;12.858;2023-07-13T12:04:28;3.97;;;3.57;;
1000;SDS011;489;47.806;12.858;2023-07-13T12:06:33;3.73;;;3.43;;
1000;SDS011;489;47.806;12.858;2023-07-13T12:08:39;3.83;;;3.40;;
1000;SDS011;489;47.806;12.858;2023-07-13T12:10:41;3.00;;;2.70;;
1000;SDS011;489;47.806;12.858;2023-07-13T12:12:48;2.70;;;2.50;;
1000;SDS011;489;47.806;12.858;2023-07-13T12:14:53;2.50;;;2.30;;
1000;SDS011;489;47.806;12.858;2023-07-13T12:16:57;4.43;;;2.50;;
1000;SDS011;489;47.806;12.858;2023-07-13T12:18:59;3.60;;;2.93;;
1000;SDS011;489;47.806;12.858;2023-07-13T12:21:02;2.77;;;2.57;;
1000;SDS011;489;47.806;12.858;2023-07-13T12:23:05;2.60;;;2.40;;
1000;SDS011;489;47.806;12.858;2023-07-13T12:25:08;2.80;;;2.60;;
1000;SDS011;489;47.806;12.858;2023-07-13T12:27:13;3.83;;;2.90;;
1000;SDS011;489;47.806;12.858;2023-07-13T12:29:20;2.70;;;2.50;;
1000;SDS011;489;47.806;12.858;2023-07-13T12:31:29;2.90;;;2.70;;
1000;SDS011;489;47.806;12.858;2023-07-13T12:33:34;2.70;;;2.50;;
1000;SDS011;489;47.806;12.858;2023-07-13T12:35:39;3.20;;;2.90;;
1000;SDS011;489;47.806;12.858;2023-07-13T12:37:45;3.90;;;2.73;;
1000;SDS011;489;47.806;12.858;2023-07-13T12:39:49;2.70;;;2.50;;
1000;SDS011;489;47.806;12.858;2023-07-13T12:41:52;2.60;;;2.40;;
1000;SDS011;489;47.806;12.858;2023-07-13T12:43:53;2.50;;;2.30;;
1000;SDS011;489;47.806;12.858;2023-07-13T12:45:56;4.93;;;3.07;;
1000;SDS011;489;47.806;12.858;2023-07-13T12:48:03;4.43;;;3.97;;
1000;SDS011;489;47.806;12.858;2023-07-13T12:50:14;2.77;;;2.27;;
1000;SDS011;489;47.806;12.858;2023-07-13T12:52:18;2.90;;;2.27;;
1000;SDS011;489;47.806;12.858;2023-07-13T12:54:22;2.73;;;2.53;;
1000;SDS011;489;47.806;12.858;2023-07-13T12:56:25;2.80;;;2.60;;
1000;SDS011;489;47.806;12.858;2023-07-13T12:58:28;2.50;;;2.30;;
1000;SDS011;489;47.806;12.858;2023-07-13T13:00:32;2.67;;;2.47;;